FOOLFCBB

Guest
Details From FOOL - Leon M Ba
To FCBB - MAYA MAYA
Flight Number -
Tags generated
Created
Modified
Stats Distance 450 nm / 834 km
Max Altitude 27,100 ft / 8,260 m
Waypoints 7
Social Downloads 3
Likes 0
Share VATSIM

Download

Looking for another format? Having issues loading an existing format? Contact us
Advertisement - Login to hide

Notes

Basic altitude profile: - Ascent Rate: 2500ft/min - Ascent Speed: 250kts - Cruise Altitude: 35000ft - Cruise Speed: 420kts - Descent Rate: 1500ft/min - Descent Speed: 250kts Options: - Use NATs: yes - Use PACOTS: yes - Use low airways: yes - Use high airways: yes

Route

FOOL GAKAL G856F EPULO FCBB

ID Type Via Altitude Latitude Longitude Leg Dist Tot Dist Heading (true) Name
O FOOL APT - 0 ft / 0 m 0.45862˚ 9.41225˚ - 0 nm - Leon M Ba
GAKAL FIX - 27,100 ft / 8,260 m -0.35917˚ 10.43972˚ 78 nm 78 nm 129° / 129° -
PONOT FIX G856F (AWY-LO) 23,500 ft / 7,163 m -1.09306˚ 11.34778˚ 70 nm 148 nm 129° / 129° -
VOSAL FIX G856F (AWY-LO) 23,500 ft / 7,163 m -2.46472˚ 13.04722˚ 131 nm 280 nm 129° / 129° -
IPAMU FIX G856F (AWY-LO) 23,500 ft / 7,163 m -2.69861˚ 13.33750˚ 22 nm 302 nm 129° / 129° -
EPULO FIX G856F (AWY-LO) 15,600 ft / 4,755 m -3.43139˚ 14.24861˚ 70 nm 372 nm 129° / 129° -
O FCBB APT - 0 ft / 0 m -4.25170˚ 15.25303˚ 77 nm 450 nm 129° / 129° MAYA MAYA

Altitude Profile

Advertisement - Login to hide

Weather


0- 5 10 15 20 25 30 35+ Temperature / ° C

Clouds and Precipitation
Forecast for 2017-12-14 18:00 UTC. Updated 2 hours ago

Ground ~20,000 ft ~40,000 ft Winds

FOOL

Details ICAO FOOL (LBV)
Name Leon M Ba
Region Gabon
Timezone Africa/Libreville (UTC+1.0)
Stats Elevation 39 ft / 12 m (AMSL)
Location 0.458616° 9.412250°
Runways 1
Magnetic Variation 1.937° W

METAR

FOOL 141700Z 23005KT 190V270 9999 SCT012 FEW018CB 29/26 Q1009

Decode

TAF

TAF TAF FOOL 141100Z 1412/1518 20007KT 9999 SCT013 PROB40 TEMPO 1413/1420 3000 TSRA BKN008 FEW020CB OVC026 PROB30 TEMPO 1511/1518 TS BKN010 FEW020CB BKN030

Decode

Departure Runways

ID Width Length Bearing (true) Bearing (mag) Surface Threshold Offset Overrun Length
16 148 ft / 45 m 9,889 ft / 3,014 m 154.19° 156.13° Asphalt 0 ft / 0 m 192 ft / 59 m
34 148 ft / 45 m 9,889 ft / 3,014 m 334.19° 336.13° Asphalt 0 ft / 0 m 209 ft / 64 m

FCBB

Details ICAO FCBB (BZV)
Name MAYA MAYA
Region Republic of the Congo
Timezone Africa/Brazzaville (UTC+1.0)
Stats Elevation 1,048 ft / 319 m (AMSL)
Location -4.251698° 15.253029°
Runways 1
Magnetic Variation 1.353° W

METAR

FCBB 141700Z 12006KT 9999 FEW004 BKN018 25/22 Q1012 NOSIG

Decode

TAF

TAF FCBB 141100Z 1412/1518 28004KT 8000 SCT010 OVC020 PROB40 1505/1508 4000 BR BECMG 1512/1514 SCT020 FEW030CB

Decode

Destination Runways

ID Width Length Bearing (true) Bearing (mag) Surface Threshold Offset Overrun Length
05 148 ft / 45 m 10,849 ft / 3,307 m 49.91° 51.26° Asphalt 0 ft / 0 m 275 ft / 84 m
23 148 ft / 45 m 10,849 ft / 3,307 m 229.91° 231.26° Asphalt 0 ft / 0 m 275 ft / 84 m

Popular Alternatives